Time;durP1;ratioP1;P1;durP2;ratioP2;P2;SDS_P1;SDS_P2;PMS_P1;PMS_P2;Temp;Humidity;BMP_temperature;BMP_pressure;BME280_temperature;BME280_humidity;BME280_pressure;Samples;Min_cycle;Max_cycle;Signal;HPM_P1;HPM_P2
2022/09/02 00:01:40;;;;;;;1.88;1.20;;;15.20;99.90;;;;;;5138130;27;20146;-75
2022/09/02 00:04:10;;;;;;;;;;;15.10;99.90;;;;;;5138784;27;20058;-74
2022/09/02 00:06:37;;;;;;;1.90;1.10;;;15.10;99.90;;;;;;5156580;27;19962;-74
2022/09/02 00:09:06;;;;;;;3.45;1.15;;;15.10;99.90;;;;;;5156718;27;20095;-74
2022/09/02 00:11:34;;;;;;;2.20;1.08;;;15.00;99.90;;;;;;5138395;27;20091;-75
2022/09/02 00:14:02;;;;;;;2.08;1.33;;;15.00;99.90;;;;;;5121476;27;20456;-74
2022/09/02 00:16:30;;;;;;;2.05;1.20;;;15.00;99.90;;;;;;5135621;27;20055;-74
2022/09/02 00:18:57;;;;;;;4.82;1.13;;;14.90;99.90;;;;;;5135542;27;20083;-74
2022/09/02 00:21:26;;;;;;;2.08;1.20;;;14.90;99.90;;;;;;5116714;27;20448;-75
2022/09/02 00:23:53;;;;;;;6.47;1.65;;;14.90;99.90;;;;;;5117439;27;20054;-74
2022/09/02 00:26:21;;;;;;;5.15;1.70;;;14.80;99.90;;;;;;5135324;27;20055;-75
2022/09/02 00:28:48;;;;;;;2.63;1.40;;;14.80;99.90;;;;;;5116398;27;20051;-74
2022/09/02 00:31:15;;;;;;;7.20;1.42;;;14.70;99.90;;;;;;5116895;27;20140;-75
2022/09/02 00:33:42;;;;;;;3.97;1.20;;;14.70;99.90;;;;;;5116847;27;20513;-75
2022/09/02 00:36:09;;;;;;;2.83;1.35;;;14.60;99.90;;;;;;5134796;27;20430;-74
2022/09/02 00:38:38;;;;;;;2.63;1.48;;;14.60;99.90;;;;;;5116480;27;20043;-75
2022/09/02 00:41:08;;;;;;;4.03;1.40;;;14.50;99.90;;;;;;5134214;27;20100;-76
2022/09/02 00:43:43;;;;;;;1.85;1.17;;;14.50;99.90;;;;;;5116902;27;20388;-75
2022/09/02 00:46:12;;;;;;;2.80;1.50;;;14.50;99.90;;;;;;5134807;27;20059;-75
2022/09/02 00:48:41;;;;;;;3.03;1.75;;;14.50;99.90;;;;;;5115113;27;20058;-75
2022/09/02 00:51:09;;;;;;;3.00;1.92;;;14.50;99.90;;;;;;5116681;27;20043;-75
2022/09/02 00:53:38;;;;;;;4.25;2.22;;;14.40;99.90;;;;;;5134960;27;20055;-76
2022/09/02 00:56:09;;;;;;;3.97;2.35;;;14.30;99.90;;;;;;5133895;27;20046;-75
2022/09/02 00:58:38;;;;;;;4.93;2.38;;;14.30;99.90;;;;;;5116649;27;20107;-75
2022/09/02 01:01:05;;;;;;;7.65;2.42;;;14.30;99.90;;;;;;5134946;27;20088;-76
2022/09/02 01:03:33;;;;;;;5.43;3.35;;;14.30;99.90;;;;;;5116043;27;20071;-75
2022/09/02 01:06:01;;;;;;;3.85;2.22;;;14.20;99.90;;;;;;5116758;27;20054;-75
2022/09/02 01:08:33;;;;;;;5.05;2.10;;;14.20;99.90;;;;;;5134126;27;20053;-76
2022/09/02 01:11:03;;;;;;;4.20;2.17;;;14.20;99.90;;;;;;5133352;27;20103;-77
2022/09/02 01:13:35;;;;;;;3.13;1.92;;;14.10;99.90;;;;;;5116590;27;20083;-76
2022/09/02 01:16:09;;;;;;;2.80;1.80;;;14.10;99.90;;;;;;5133517;27;20356;-77
2022/09/02 01:18:37;;;;;;;3.42;1.90;;;14.10;99.90;;;;;;5115924;27;20129;-76
2022/09/02 01:21:05;;;;;;;2.78;1.90;;;14.10;99.90;;;;;;5116232;27;20043;-76
2022/09/02 01:23:35;;;;;;;2.85;2.25;;;14.10;99.90;;;;;;5133192;27;20047;-75
2022/09/02 01:26:03;;;;;;;5.47;2.30;;;14.00;99.90;;;;;;5116330;27;20058;-76
2022/09/02 01:28:32;;;;;;;4.22;2.10;;;14.00;99.90;;;;;;5116006;27;20046;-76
2022/09/02 01:30:59;;;;;;;4.00;2.00;;;14.00;99.90;;;;;;5115620;27;20548;-74
2022/09/02 01:33:26;;;;;;;3.17;2.00;;;13.90;99.90;;;;;;5116240;27;20055;-76
2022/09/02 01:35:53;;;;;;;4.95;2.00;;;13.90;99.90;;;;;;5116277;27;20431;-76
2022/09/02 01:38:21;;;;;;;3.78;1.95;;;14.00;99.90;;;;;;5115471;27;20104;-75
2022/09/02 01:40:51;;;;;;;4.10;2.55;;;13.90;99.90;;;;;;5134359;27;20095;-76
2022/09/02 01:43:21;;;;;;;2.80;2.27;;;13.90;99.90;;;;;;5115713;27;20454;-74
2022/09/02 01:45:50;;;;;;;3.50;2.08;;;13.90;99.90;;;;;;5153206;27;20863;-76
2022/09/02 01:48:17;;;;;;;4.85;1.92;;;13.90;99.90;;;;;;5136385;27;20050;-75
2022/09/02 01:50:48;;;;;;;3.97;1.80;;;13.80;99.90;;;;;;5154271;27;20490;-75
2022/09/02 01:53:15;;;;;;;2.47;1.80;;;13.80;99.90;;;;;;5154333;27;20089;-75
2022/09/02 01:55:42;;;;;;;2.75;1.83;;;13.80;99.90;;;;;;5136487;27;20558;-76
2022/09/02 01:58:10;;;;;;;3.25;2.00;;;13.80;99.90;;;;;;5135432;27;20095;-76
2022/09/02 02:00:37;;;;;;;4.53;1.88;;;13.80;99.90;;;;;;5115010;28;20043;-76
2022/09/02 02:03:05;;;;;;;2.17;1.60;;;13.80;99.90;;;;;;5115607;28;20059;-77
2022/09/02 02:05:32;;;;;;;2.88;2.00;;;13.80;99.90;;;;;;5147713;27;20050;-77
2022/09/02 02:08:00;;;;;;;2.53;1.70;;;13.70;99.90;;;;;;5155039;27;20047;-76
2022/09/02 02:10:27;;;;;;;3.75;1.88;;;13.70;99.90;;;;;;5136086;27;20057;-76
2022/09/02 02:12:54;;;;;;;2.78;1.70;;;13.70;99.90;;;;;;5131075;28;20043;-76
2022/09/02 02:15:23;;;;;;;4.57;2.00;;;13.60;99.90;;;;;;5115415;28;20550;-76
2022/09/02 02:17:50;;;;;;;6.22;2.13;;;13.70;99.90;;;;;;5134110;28;20047;-75
2022/09/02 02:20:20;;;;;;;5.43;2.30;;;13.60;99.90;;;;;;5132827;28;20051;-76
2022/09/02 02:22:48;;;;;;;4.57;2.03;;;13.60;99.90;;;;;;5135645;27;20051;-76
2022/09/02 02:25:16;;;;;;;4.03;2.03;;;13.60;99.90;;;;;;5137389;27;20100;-75
2022/09/02 02:27:44;;;;;;;3.90;1.90;;;13.50;99.90;;;;;;5137297;27;20047;-76
2022/09/02 02:30:12;;;;;;;2.97;1.85;;;13.50;99.90;;;;;;5137902;27;20422;-76
2022/09/02 02:32:41;;;;;;;2.67;1.75;;;13.50;99.90;;;;;;5125839;27;20092;-77
2022/09/02 02:35:09;;;;;;;3.35;1.75;;;13.40;99.90;;;;;;5157898;27;20082;-78
2022/09/02 02:37:37;;;;;;;5.22;1.90;;;13.40;99.90;;;;;;5139999;27;20490;-78
2022/09/02 02:40:05;;;;;;;2.75;1.42;;;13.40;99.90;;;;;;5158008;27;20383;-77
2022/09/02 02:42:32;;;;;;;3.53;1.80;;;13.40;99.90;;;;;;5157786;27;20054;-77
2022/09/02 02:44:59;;;;;;;3.35;2.00;;;13.40;99.90;;;;;;5139022;27;20500;-77
2022/09/02 02:47:26;;;;;;;4.43;1.95;;;13.40;99.90;;;;;;5157402;27;20054;-77
2022/09/02 02:49:54;;;;;;;2.08;1.60;;;13.30;99.90;;;;;;5138995;27;20138;-77
2022/09/02 02:52:21;;;;;;;3.13;1.48;;;13.30;99.90;;;;;;5139857;27;20042;-77
2022/09/02 02:54:48;;;;;;;3.05;1.50;;;13.30;99.90;;;;;;5138757;27;20444;-76
2022/09/02 02:57:15;;;;;;;3.50;1.90;;;13.30;99.90;;;;;;5144800;27;20104;-75
2022/09/02 02:59:42;;;;;;;2.92;2.05;;;13.20;99.90;;;;;;5118860;27;20054;-76
2022/09/02 03:02:09;;;;;;;3.47;1.45;;;13.20;99.90;;;;;;5118353;27;20431;-75
2022/09/02 03:04:36;;;;;;;2.75;1.90;;;13.20;99.90;;;;;;5137107;27;20418;-75
2022/09/02 03:07:06;;;;;;;2.35;1.48;;;13.20;99.90;;;;;;5137218;27;20054;-75
2022/09/02 03:09:33;;;;;;;3.22;1.80;;;13.20;99.90;;;;;;5117706;27;20066;-76
2022/09/02 03:12:00;;;;;;;3.25;1.98;;;13.20;99.90;;;;;;5137350;27;20039;-76
2022/09/02 03:14:27;;;;;;;2.10;1.40;;;13.20;99.90;;;;;;5136705;27;20104;-76
2022/09/02 03:16:54;;;;;;;4.38;1.80;;;13.20;99.90;;;;;;5136060;27;20534;-75
2022/09/02 03:19:21;;;;;;;4.10;1.63;;;13.10;99.90;;;;;;5137019;27;20047;-75
2022/09/02 03:21:48;;;;;;;2.78;1.55;;;13.20;99.90;;;;;;5136435;27;20039;-76
2022/09/02 03:24:16;;;;;;;3.75;1.65;;;13.00;99.90;;;;;;5118092;27;20062;-75
2022/09/02 03:26:43;;;;;;;2.50;1.80;;;13.00;99.90;;;;;;5118638;27;20095;-75
2022/09/02 03:29:11;;;;;;;3.28;1.75;;;13.00;99.90;;;;;;5125496;27;20051;-75
2022/09/02 03:31:37;;;;;;;4.22;1.90;;;13.00;99.90;;;;;;5117844;27;20047;-74
2022/09/02 03:34:05;;;;;;;4.57;1.50;;;12.90;99.90;;;;;;5117622;27;20090;-75
2022/09/02 03:36:34;;;;;;;3.83;1.90;;;13.00;99.90;;;;;;5118026;27;20059;-75
2022/09/02 03:39:02;;;;;;;2.88;1.60;;;13.00;99.90;;;;;;5117636;27;20050;-75
2022/09/02 03:41:30;;;;;;;3.13;2.00;;;12.90;99.90;;;;;;5118114;27;20047;-75
2022/09/02 03:43:58;;;;;;;2.33;1.52;;;12.90;99.90;;;;;;5127779;27;20103;-75
2022/09/02 03:46:25;;;;;;;2.35;1.65;;;12.90;99.90;;;;;;5157021;27;20126;-76
2022/09/02 03:48:52;;;;;;;4.05;1.90;;;12.90;99.90;;;;;;5137864;27;20050;-76
2022/09/02 03:51:19;;;;;;;2.80;1.80;;;12.80;99.90;;;;;;5118241;27;20051;-75
2022/09/02 03:53:46;;;;;;;7.55;2.17;;;12.80;99.90;;;;;;5136347;27;20055;-74
2022/09/02 03:56:14;;;;;;;2.75;1.70;;;12.80;99.90;;;;;;5136293;27;20055;-75
2022/09/02 03:58:44;;;;;;;4.97;1.90;;;12.70;99.90;;;;;;5135035;27;20126;-76
2022/09/02 04:01:14;;;;;;;4.78;1.80;;;12.70;99.90;;;;;;5135922;27;20103;-75
2022/09/02 04:03:41;;;;;;;3.08;1.80;;;12.70;99.90;;;;;;5135842;27;20039;-74
2022/09/02 04:06:11;;;;;;;2.83;1.90;;;12.60;99.90;;;;;;5135511;27;20043;-75
2022/09/02 04:08:40;;;;;;;7.22;2.25;;;12.60;99.90;;;;;;5135733;27;20070;-73
2022/09/02 04:11:09;;;;;;;2.88;1.85;;;12.60;99.90;;;;;;5135470;27;20498;-74
2022/09/02 04:13:37;;;;;;;6.35;1.90;;;12.60;99.90;;;;;;5135242;27;20128;-75
2022/09/02 04:16:08;;;;;;;5.93;2.10;;;12.50;99.90;;;;;;5135566;27;20051;-74
2022/09/02 04:18:36;;;;;;;2.97;1.90;;;12.50;99.90;;;;;;5117021;27;20104;-73
2022/09/02 04:21:03;;;;;;;3.08;1.85;;;12.50;99.90;;;;;;5116660;27;20096;-74
2022/09/02 04:23:31;;;;;;;2.90;2.20;;;12.40;99.90;;;;;;5117139;27;20051;-73
2022/09/02 04:25:58;;;;;;;3.53;2.03;;;12.40;99.90;;;;;;5116637;27;20047;-77
2022/09/02 04:28:25;;;;;;;4.28;1.92;;;12.40;99.90;;;;;;5116660;27;20095;-76
2022/09/02 04:30:52;;;;;;;3.13;2.20;;;12.30;99.90;;;;;;5116653;27;20054;-76
2022/09/02 04:33:20;;;;;;;3.75;1.70;;;12.50;99.90;;;;;;5117921;27;20052;-77
2022/09/02 04:35:48;;;;;;;14.38;1.92;;;13.60;99.90;;;;;;5127567;27;20054;-77
2022/09/02 04:38:16;;;;;;;6.68;1.88;;;13.80;99.90;;;;;;5148478;27;20454;-76
2022/09/02 04:40:45;;;;;;;9.23;2.05;;;14.00;99.90;;;;;;5152042;27;20459;-76
2022/09/02 04:43:13;;;;;;;6.95;2.03;;;14.10;99.90;;;;;;5145650;27;20055;-78
2022/09/02 04:45:41;;;;;;;4.45;1.70;;;14.60;99.90;;;;;;5130136;27;20114;-77
2022/09/02 04:48:08;;;;;;;3.38;1.65;;;14.90;99.90;;;;;;5129520;27;20046;-77
2022/09/02 04:50:41;;;;;;;2.65;1.60;;;14.90;99.90;;;;;;5130065;27;20078;-75
2022/09/02 04:53:10;;;;;;;4.32;1.65;;;15.10;99.90;;;;;;5127289;27;20051;-74
2022/09/02 04:55:40;;;;;;;4.53;1.40;;;15.00;99.90;;;;;;5129547;27;20088;-75
2022/09/02 04:58:07;;;;;;;3.97;1.60;;;15.10;99.90;;;;;;5148857;27;20142;-75
2022/09/02 05:00:34;;;;;;;2.55;1.60;;;15.10;99.90;;;;;;5130545;27;20050;-73
2022/09/02 05:03:03;;;;;;;4.68;1.83;;;15.10;99.90;;;;;;5127440;27;20048;-75
2022/09/02 05:05:30;;;;;;;3.35;2.20;;;14.50;99.90;;;;;;5128032;27;20051;-76
2022/09/02 05:07:59;;;;;;;3.20;1.90;;;14.20;99.90;;;;;;5132823;27;20384;-77
2022/09/02 05:10:27;;;;;;;3.33;1.90;;;14.00;99.90;;;;;;5149275;27;20555;-75
2022/09/02 05:12:55;;;;;;;2.60;1.70;;;13.70;99.90;;;;;;5152146;27;20435;-75
2022/09/02 05:15:21;;;;;;;3.05;1.83;;;13.70;99.90;;;;;;5143802;27;20103;-76
2022/09/02 05:17:48;;;;;;;5.30;2.03;;;13.50;99.90;;;;;;5132679;27;20039;-78
2022/09/02 05:20:15;;;;;;;5.15;1.90;;;13.50;99.90;;;;;;5147674;27;20031;-76
2022/09/02 05:22:42;;;;;;;3.58;1.80;;;13.40;99.90;;;;;;5124683;27;20541;-74
2022/09/02 05:25:10;;;;;;;3.47;1.88;;;13.50;99.90;;;;;;5146877;27;20504;-74
2022/09/02 05:27:38;;;;;;;3.58;1.95;;;13.40;99.90;;;;;;5146730;27;20046;-74
2022/09/02 05:30:07;;;;;;;3.72;1.90;;;13.40;99.90;;;;;;5148503;27;20046;-76
2022/09/02 05:32:34;;;;;;;8.98;2.20;;;13.30;99.90;;;;;;5129267;27;20046;-77
2022/09/02 05:35:01;;;;;;;3.13;1.73;;;13.40;99.90;;;;;;5144757;27;20047;-78
2022/09/02 05:37:28;;;;;;;3.13;1.85;;;13.40;99.90;;;;;;5150082;27;20091;-78
2022/09/02 05:39:55;;;;;;;3.13;2.20;;;13.50;99.90;;;;;;5127738;27;20518;-82
2022/09/02 05:42:23;;;;;;;4.13;1.98;;;13.50;99.90;;;;;;5147455;27;20481;-83
2022/09/02 05:44:50;;;;;;;4.78;1.90;;;13.50;99.90;;;;;;5129404;27;20046;-82
2022/09/02 05:47:17;;;;;;;2.85;1.80;;;13.60;99.90;;;;;;5156733;27;20053;-79
2022/09/02 05:49:44;;;;;;;4.47;1.88;;;13.60;99.90;;;;;;5145630;27;20081;-80
2022/09/02 05:52:13;;;;;;;5.20;2.50;;;13.70;99.90;;;;;;5124885;27;20047;-78
2022/09/02 05:54:40;;;;;;;4.35;1.80;;;13.80;99.90;;;;;;5129079;27;20111;-82
2022/09/02 05:57:10;;;;;;;4.13;1.67;;;13.90;99.90;;;;;;5164258;27;20039;-78
2022/09/02 05:59:41;;;;;;;3.35;1.75;;;13.90;99.90;;;;;;5159668;27;20075;-75
2022/09/02 06:02:09;;;;;;;6.93;1.92;;;14.20;99.90;;;;;;5133422;27;20106;-80
2022/09/02 06:04:40;;;;;;;3.35;2.10;;;14.10;99.90;;;;;;5131890;27;20861;-81
2022/09/02 06:07:08;;;;;;;3.20;1.90;;;14.10;99.90;;;;;;5146916;27;20069;-83
2022/09/02 06:09:35;;;;;;;2.88;1.80;;;14.20;99.90;;;;;;5131484;27;20051;-78
2022/09/02 06:12:03;;;;;;;4.28;2.28;;;14.30;99.90;;;;;;5132322;27;20064;-69
2022/09/02 06:14:30;;;;;;;5.13;2.08;;;14.30;99.90;;;;;;5136152;27;20126;-80
2022/09/02 06:16:59;;;;;;;4.50;1.90;;;14.30;99.90;;;;;;5148144;27;20124;-80
2022/09/02 06:19:29;;;;;;;3.97;2.20;;;14.30;99.90;;;;;;5135647;27;20051;-80
2022/09/02 06:21:57;;;;;;;15.85;2.40;;;14.50;99.90;;;;;;5156222;27;20548;-80
2022/09/02 06:24:24;;;;;;;3.78;2.28;;;15.00;99.90;;;;;;5138064;27;20170;-81
2022/09/02 06:26:52;;;;;;;4.60;2.00;;;15.90;99.90;;;;;;5124990;28;20092;-81
2022/09/02 06:29:19;;;;;;;4.07;1.90;;;16.90;99.90;;;;;;5135676;28;20110;-80
2022/09/02 06:31:48;;;;;;;5.75;2.05;;;17.60;99.90;;;;;;5148195;27;20046;-79
2022/09/02 06:34:20;;;;;;;3.80;1.63;;;18.20;99.90;;;;;;5155452;27;20073;-79
2022/09/02 06:36:49;;;;;;;4.72;1.80;;;19.00;99.20;;;;;;5152997;27;20050;-79
2022/09/02 06:39:18;;;;;;;5.15;1.90;;;19.60;97.40;;;;;;5138006;27;20122;-81
2022/09/02 06:41:47;;;;;;;3.35;1.75;;;20.10;95.90;;;;;;5131778;27;20637;-77
2022/09/02 06:44:16;;;;;;;3.75;1.92;;;20.40;93.80;;;;;;5134954;27;20047;-78
2022/09/02 06:46:46;;;;;;;3.72;1.70;;;20.70;93.90;;;;;;5129782;28;20062;-80
2022/09/02 06:49:15;;;;;;;2.90;1.50;;;21.20;93.20;;;;;;5132241;28;20059;-79
2022/09/02 06:51:46;;;;;;;4.97;1.70;;;21.50;92.30;;;;;;5119471;28;20406;-79
2022/09/02 06:54:19;;;;;;;2.47;1.50;;;22.00;90.20;;;;;;5128405;27;20051;-79
2022/09/02 06:56:48;;;;;;;4.35;1.48;;;22.40;89.70;;;;;;5152638;27;20073;-80
2022/09/02 06:59:15;;;;;;;5.70;1.70;;;22.70;90.10;;;;;;5132445;27;20046;-80
2022/09/02 07:01:43;;;;;;;4.28;1.38;;;23.00;88.90;;;;;;5133072;27;20050;-79
2022/09/02 07:34:13;;;;;;;3.47;1.30;;;25.10;76.50;;;;;;4979264;28;20070;-76
2022/09/02 07:36:41;;;;;;;5.63;1.60;;;25.50;76.90;;;;;;4962427;28;20532;-76
2022/09/02 07:39:10;;;;;;;2.97;1.40;;;25.80;77.20;;;;;;4987988;28;20078;-76
2022/09/02 07:41:38;;;;;;;5.23;1.40;;;25.90;76.50;;;;;;4993328;28;20051;-77
2022/09/02 07:44:05;;;;;;;3.85;1.50;;;26.10;75.80;;;;;;4985685;28;20042;-76
2022/09/02 07:46:33;;;;;;;2.08;1.02;;;26.40;75.30;;;;;;4977835;28;20042;-75
2022/09/02 07:49:00;;;;;;;5.00;1.35;;;26.70;74.40;;;;;;4984279;28;20174;-76
2022/09/02 07:51:29;;;;;;;3.58;1.30;;;26.80;74.00;;;;;;4988950;28;20104;-74
2022/09/02 07:53:56;;;;;;;3.55;1.20;;;27.20;73.30;;;;;;5013501;28;20050;-77
2022/09/02 07:56:23;;;;;;;2.92;1.15;;;27.60;73.30;;;;;;4980814;28;20054;-76
2022/09/02 07:58:50;;;;;;;4.13;1.40;;;27.70;72.70;;;;;;4977946;28;20058;-76
2022/09/02 08:01:17;;;;;;;3.22;1.00;;;27.80;72.30;;;;;;4977775;28;20054;-76
2022/09/02 08:03:44;;;;;;;10.80;2.35;;;28.30;72.10;;;;;;4966486;28;20080;-77
2022/09/02 08:06:13;;;;;;;1.60;1.00;;;28.70;70.30;;;;;;4986626;28;20462;-77
2022/09/02 08:08:42;;;;;;;3.97;1.40;;;28.90;70.20;;;;;;4974915;28;20081;-77
2022/09/02 08:11:10;;;;;;;3.95;1.35;;;29.10;69.60;;;;;;4973951;28;20086;-77
2022/09/02 08:13:37;;;;;;;3.00;0.90;;;28.60;69.00;;;;;;4982501;28;20433;-75
2022/09/02 08:16:05;;;;;;;6.22;1.58;;;28.90;68.90;;;;;;4993517;28;20061;-76
2022/09/02 08:18:32;;;;;;;2.90;1.05;;;29.00;68.40;;;;;;4992610;28;20046;-77
2022/09/02 08:20:59;;;;;;;4.65;1.05;;;29.60;68.30;;;;;;4993293;28;20058;-77
2022/09/02 08:23:26;;;;;;;4.22;1.10;;;29.90;67.50;;;;;;5000441;28;20117;-78
2022/09/02 08:25:54;;;;;;;3.13;1.08;;;30.00;67.00;;;;;;4973789;28;20054;-76
2022/09/02 08:28:21;;;;;;;2.28;1.02;;;29.70;66.10;;;;;;4992661;28;20494;-77
2022/09/02 08:30:48;;;;;;;2.85;1.10;;;29.90;65.70;;;;;;4994218;28;20422;-78
2022/09/02 08:33:15;;;;;;;2.17;1.02;;;29.90;65.10;;;;;;4979870;28;20051;-77
2022/09/02 08:35:42;;;;;;;2.97;1.10;;;30.20;64.90;;;;;;4984584;28;20050;-77
2022/09/02 08:38:08;;;;;;;2.00;1.08;;;30.90;64.60;;;;;;4963787;28;20050;-77
2022/09/02 08:40:39;;;;;;;8.55;1.52;;;30.60;64.30;;;;;;4992377;28;20053;-78
2022/09/02 08:43:28;;;;;;;3.63;1.10;;;30.30;63.10;;;;;;4981205;28;20085;-78
2022/09/02 08:45:59;;;;;;;3.67;1.00;;;30.40;64.10;;;;;;4974540;28;20215;-78
2022/09/02 08:48:36;;;;;;;2.60;1.10;;;30.50;61.90;;;;;;4957352;28;20054;-79
2022/09/02 08:51:07;;;;;;;2.92;0.98;;;30.70;62.80;;;;;;4957721;28;20454;-78
2022/09/02 08:53:40;;;;;;;3.42;1.08;;;30.80;62.40;;;;;;4982955;28;20678;-78
2022/09/02 08:56:10;;;;;;;4.30;1.27;;;30.50;62.60;;;;;;5013206;28;20061;-78
2022/09/02 08:58:43;;;;;;;4.25;1.38;;;30.90;62.80;;;;;;4991943;28;20054;-79
2022/09/02 09:01:23;;;;;;;6.45;2.13;;;31.20;62.40;;;;;;4992457;28;20054;-78
2022/09/02 09:04:26;;;;;;;6.38;1.35;;;31.10;62.30;;;;;;4986624;28;20414;-78
2022/09/02 09:07:09;;;;;;;4.93;1.48;;;31.20;61.90;;;;;;4937280;28;20061;-79
2022/09/02 09:09:50;;;;;;;5.10;1.23;;;31.10;60.80;;;;;;4956643;28;20057;-78
2022/09/02 09:12:29;;;;;;;2.55;1.02;;;31.00;61.90;;;;;;4974190;28;20490;-78
2022/09/02 09:15:05;;;;;;;2.58;1.00;;;31.20;62.00;;;;;;4961117;28;20494;-78
2022/09/02 09:17:40;;;;;;;2.88;1.13;;;30.90;60.80;;;;;;5012668;28;20050;-78
2022/09/02 09:20:14;;;;;;;3.58;1.13;;;31.60;61.30;;;;;;5002214;28;20053;-78
2022/09/02 09:22:42;;;;;;;4.47;1.38;;;31.20;60.80;;;;;;4977412;28;20054;-78
2022/09/02 09:25:12;;;;;;;4.57;1.30;;;31.60;61.30;;;;;;4983596;28;20723;-77
2022/09/02 09:27:39;;;;;;;3.28;1.08;;;32.00;61.10;;;;;;4991927;28;20058;-79
2022/09/02 09:30:10;;;;;;;6.15;1.30;;;32.10;60.80;;;;;;4992746;28;20076;-79
2022/09/02 09:32:41;;;;;;;5.13;1.27;;;32.20;60.10;;;;;;4990581;28;20054;-78
2022/09/02 09:35:10;;;;;;;5.60;1.20;;;32.30;59.70;;;;;;4992030;28;20567;-78
2022/09/02 09:37:43;;;;;;;1.98;0.82;;;32.30;59.90;;;;;;4992534;28;20069;-78
2022/09/02 09:40:37;;;;;;;2.78;1.60;;;32.10;59.20;;;;;;4978311;28;20054;-78
2022/09/02 09:43:13;;;;;;;3.75;1.25;;;32.00;58.50;;;;;;4960711;28;20067;-79
2022/09/02 09:45:42;;;;;;;3.92;1.05;;;32.00;59.10;;;;;;4976221;28;20108;-78
2022/09/02 09:48:28;;;;;;;5.68;1.13;;;32.90;59.00;;;;;;4993970;28;20055;-76
2022/09/02 09:51:15;;;;;;;2.75;1.20;;;33.50;58.20;;;;;;5006243;28;20057;-78
2022/09/02 09:53:44;;;;;;;5.95;1.25;;;33.00;57.50;;;;;;5008915;28;20493;-78
2022/09/02 09:56:33;;;;;;;4.38;1.00;;;33.20;58.70;;;;;;4992397;28;20074;-78
2022/09/02 09:59:00;;;;;;;3.45;1.10;;;32.80;56.90;;;;;;4975235;28;20098;-78
2022/09/02 10:01:30;;;;;;;5.85;1.30;;;32.50;57.60;;;;;;4975289;28;20054;-79
2022/09/02 10:04:01;;;;;;;3.65;1.17;;;32.60;57.90;;;;;;4977474;28;20046;-79
2022/09/02 10:06:38;;;;;;;5.10;1.05;;;32.60;57.70;;;;;;4993139;28;20046;-77
2022/09/02 10:09:07;;;;;;;3.97;1.35;;;33.30;56.50;;;;;;4993044;28;20054;-78
2022/09/02 10:11:36;;;;;;;3.80;1.17;;;33.20;56.40;;;;;;4988086;28;20553;-78
2022/09/02 10:14:04;;;;;;;5.50;1.20;;;33.00;56.70;;;;;;4956174;28;20439;-78
2022/09/02 10:16:55;;;;;;;2.60;0.87;;;33.00;56.50;;;;;;4965998;28;20081;-78
2022/09/02 10:19:29;;;;;;;4.05;1.05;;;32.90;56.20;;;;;;4978496;28;20497;-77
2022/09/02 10:22:22;;;;;;;3.58;1.10;;;32.60;56.30;;;;;;4958762;28;20391;-79
2022/09/02 10:25:02;;;;;;;3.83;0.98;;;32.60;56.30;;;;;;4974366;28;20047;-77
2022/09/02 10:27:37;;;;;;;2.65;1.10;;;32.10;56.00;;;;;;4992998;28;20081;-78
2022/09/02 10:30:08;;;;;;;6.65;1.05;;;32.60;55.90;;;;;;4975249;28;20108;-78
2022/09/02 10:32:59;;;;;;;5.57;1.45;;;32.50;55.70;;;;;;4974645;28;20101;-78
2022/09/02 10:35:34;;;;;;;3.08;1.00;;;32.40;56.00;;;;;;4990916;28;20047;-78
2022/09/02 10:38:23;;;;;;;5.25;1.00;;;32.10;56.00;;;;;;4974679;28;20057;-78
2022/09/02 10:40:54;;;;;;;3.30;0.80;;;32.00;55.90;;;;;;4974980;28;20490;-79
2022/09/02 10:43:33;;;;;;;3.67;0.90;;;32.10;56.10;;;;;;4992808;28;20049;-79
2022/09/02 10:46:01;;;;;;;6.32;1.63;;;32.20;56.30;;;;;;5015488;28;20054;-78
2022/09/02 10:48:41;;;;;;;2.47;1.00;;;32.10;56.50;;;;;;5000052;28;20066;-79
2022/09/02 10:51:15;;;;;;;2.15;1.00;;;32.30;56.20;;;;;;4982383;28;20170;-78
2022/09/02 10:53:58;;;;;;;1.90;0.88;;;31.80;56.60;;;;;;4996784;28;20489;-77
2022/09/02 10:56:29;;;;;;;4.78;1.00;;;32.00;56.00;;;;;;4993847;28;20485;-78
2022/09/02 10:59:01;;;;;;;2.33;0.85;;;32.10;56.20;;;;;;4990876;28;20068;-78
2022/09/02 11:01:32;;;;;;;1.77;0.90;;;32.60;55.80;;;;;;5015599;28;20057;-80
2022/09/02 11:04:07;;;;;;;2.88;0.80;;;33.00;55.40;;;;;;5010518;28;20117;-78
2022/09/02 11:06:38;;;;;;;2.92;0.90;;;33.10;54.90;;;;;;4959335;28;20050;-78
2022/09/02 11:09:11;;;;;;;3.17;0.82;;;32.80;55.00;;;;;;4972732;28;20054;-78
2022/09/02 11:11:41;;;;;;;3.80;0.90;;;32.90;55.40;;;;;;4978668;28;20062;-78
2022/09/02 11:14:18;;;;;;;3.65;0.90;;;33.20;55.50;;;;;;4993889;28;20394;-76
2022/09/02 11:16:50;;;;;;;2.90;1.23;;;32.70;55.60;;;;;;4997185;28;20515;-77
2022/09/02 11:19:26;;;;;;;3.25;1.10;;;32.50;55.90;;;;;;4998407;28;20104;-77
2022/09/02 11:21:59;;;;;;;2.25;0.88;;;32.70;55.30;;;;;;5014613;28;20045;-79
2022/09/02 11:24:31;;;;;;;4.45;1.02;;;33.40;54.90;;;;;;5003713;28;20047;-79
2022/09/02 11:27:05;;;;;;;3.17;0.93;;;33.20;54.90;;;;;;4978633;28;20195;-79
2022/09/02 11:29:40;;;;;;;3.70;0.80;;;33.30;55.00;;;;;;4978255;28;20093;-78
2022/09/02 11:32:15;;;;;;;2.90;0.90;;;33.70;54.10;;;;;;4978478;28;20054;-79
2022/09/02 11:34:48;;;;;;;4.03;0.90;;;34.10;54.10;;;;;;4994365;28;20104;-78
2022/09/02 11:37:26;;;;;;;2.70;0.70;;;34.30;53.60;;;;;;4996014;28;20495;-79
2022/09/02 11:39:58;;;;;;;1.98;0.68;;;33.90;53.50;;;;;;4994373;28;20081;-79
2022/09/02 11:42:42;;;;;;;2.00;0.65;;;33.70;54.00;;;;;;4994455;28;20046;-79
2022/09/02 11:45:38;;;;;;;2.75;0.90;;;33.50;52.70;;;;;;4973893;28;20042;-79
2022/09/02 11:48:41;;;;;;;3.60;0.90;;;33.90;53.30;;;;;;4959331;28;20438;-79
2022/09/02 11:51:31;;;;;;;3.75;1.20;;;33.70;53.30;;;;;;4995413;28;20053;-78
2022/09/02 11:54:02;;;;;;;3.55;1.00;;;33.60;53.50;;;;;;4996720;28;20050;-78
2022/09/02 11:56:36;;;;;;;3.15;1.15;;;33.50;54.10;;;;;;5013337;28;20489;-78
2022/09/02 11:59:06;;;;;;;4.20;0.93;;;33.80;54.70;;;;;;4997640;28;20060;-80
2022/09/02 12:01:37;;;;;;;6.40;0.90;;;33.90;53.70;;;;;;4978187;28;20486;-79
2022/09/02 12:04:06;;;;;;;4.50;1.30;;;34.00;53.80;;;;;;4983868;28;20054;-80
2022/09/02 12:06:34;;;;;;;7.47;1.30;;;33.40;54.30;;;;;;4997401;28;20104;-79
2022/09/02 12:09:09;;;;;;;4.00;1.33;;;33.60;54.60;;;;;;4997527;28;20058;-79
2022/09/02 12:11:53;;;;;;;5.03;1.40;;;33.00;54.20;;;;;;4980534;28;20133;-79
2022/09/02 12:15:04;;;;;;;2.97;0.90;;;33.60;54.80;;;;;;4978043;28;20565;-79
2022/09/02 12:18:13;;;;;;;3.88;1.00;;;33.90;53.90;;;;;;4971052;28;20054;-78
2022/09/02 12:21:07;;;;;;;;;;;33.60;53.80;;;;;;4975810;28;20058;-79
2022/09/02 12:24:11;;;;;;;2.92;0.80;;;33.60;53.90;;;;;;4995870;28;19922;-78
2022/09/02 12:27:07;;;;;;;2.60;0.90;;;34.30;53.90;;;;;;4995493;28;20505;-79
2022/09/02 12:29:36;;;;;;;5.55;1.00;;;34.80;53.50;;;;;;4983149;28;20572;-78
2022/09/02 12:32:04;;;;;;;1.88;0.80;;;35.30;53.30;;;;;;5018714;28;20065;-78
2022/09/02 12:34:55;;;;;;;5.80;0.98;;;35.20;52.90;;;;;;5001189;28;20058;-78
2022/09/02 12:38:02;;;;;;;2.38;0.80;;;34.90;52.50;;;;;;5003545;28;20061;-78
2022/09/02 12:40:40;;;;;;;4.63;1.02;;;35.10;52.70;;;;;;4971142;28;20173;-77
2022/09/02 12:43:25;;;;;;;3.97;0.90;;;35.00;52.80;;;;;;5009111;28;20046;-78
2022/09/02 12:45:56;;;;;;;3.58;0.90;;;34.30;52.70;;;;;;4997339;28;20092;-78
2022/09/02 12:48:28;;;;;;;4.07;1.10;;;34.30;52.70;;;;;;5004664;28;20857;-77
2022/09/02 12:50:56;;;;;;;4.22;0.80;;;34.20;52.50;;;;;;4977609;28;20141;-78
2022/09/02 12:53:37;;;;;;;1.70;0.60;;;34.20;52.10;;;;;;4977167;28;20065;-76
2022/09/02 12:56:16;;;;;;;1.88;0.68;;;34.50;51.90;;;;;;4977823;28;20781;-77
2022/09/02 12:58:45;;;;;;;;;;;35.00;51.50;;;;;;4976845;28;20092;-77
2022/09/02 13:01:19;;;;;;;3.83;1.00;;;34.90;50.80;;;;;;4977075;28;20328;-77
2022/09/02 13:04:12;;;;;;;3.28;0.85;;;34.80;50.70;;;;;;4994771;28;20555;-76
2022/09/02 13:06:53;;;;;;;1.50;0.65;;;34.50;51.30;;;;;;4970674;28;20050;-77
2022/09/02 13:09:41;;;;;;;3.30;0.85;;;34.20;50.80;;;;;;4994275;28;20104;-76
2022/09/02 13:12:34;;;;;;;4.05;0.90;;;34.70;51.20;;;;;;4994465;28;20498;-76
2022/09/02 13:15:23;;;;;;;2.53;0.80;;;34.70;50.70;;;;;;4977300;28;20108;-77
2022/09/02 13:18:08;;;;;;;;;;;34.10;50.90;;;;;;4976710;28;20061;-77
2022/09/02 13:21:09;;;;;;;3.55;0.90;;;34.60;51.20;;;;;;4975555;28;19922;-76
2022/09/02 13:24:09;;;;;;;4.50;1.02;;;34.10;50.40;;;;;;4976646;28;20153;-77
2022/09/02 13:27:07;;;;;;;1.77;0.63;;;34.00;51.40;;;;;;4974191;28;20058;-77
2022/09/02 13:30:05;;;;;;;2.58;0.88;;;33.90;50.70;;;;;;4957755;28;20176;-77
2022/09/02 13:32:33;;;;;;;5.63;0.85;;;33.80;51.20;;;;;;4966515;28;20050;-76
2022/09/02 13:35:03;;;;;;;3.08;1.00;;;34.20;51.00;;;;;;4976355;28;20387;-76
2022/09/02 13:37:33;;;;;;;3.63;0.75;;;34.80;50.90;;;;;;4978612;28;20054;-77
2022/09/02 13:40:05;;;;;;;1.92;0.80;;;35.20;50.60;;;;;;4994694;28;20082;-77
2022/09/02 13:42:32;;;;;;;6.10;1.00;;;35.40;50.50;;;;;;4975545;28;20485;-76